createdAt,value
2023-05-21T00:05:08.453Z,32
2023-05-21T00:33:52.543Z,32
2023-05-21T01:02:56.161Z,32
2023-05-21T01:32:27.537Z,33
2023-05-21T02:01:20.241Z,36
2023-05-21T02:30:12.401Z,36
2023-05-21T02:59:08.548Z,35
2023-05-21T03:28:12.229Z,53
2023-05-21T03:57:04.999Z,39
2023-05-21T04:26:01.033Z,37
2023-05-21T04:55:01.595Z,39
2023-05-21T05:24:00.237Z,37
2023-05-21T05:52:58.347Z,38
2023-05-21T06:21:59.931Z,39
2023-05-21T06:51:01.798Z,36
2023-05-21T07:20:05.479Z,35
2023-05-21T07:48:59.395Z,36
2023-05-21T08:17:42.398Z,35
2023-05-21T08:46:45.059Z,35
2023-05-21T09:15:22.384Z,34
2023-05-21T09:44:13.679Z,32
2023-05-21T10:13:23.748Z,33
2023-05-21T10:42:02.202Z,29
2023-05-21T11:10:29.171Z,33
2023-05-21T11:39:18.697Z,32
2023-05-21T12:08:01.330Z,32
2023-05-21T12:36:44.672Z,28
2023-05-21T13:05:35.301Z,28
2023-05-21T13:34:05.673Z,28
2023-05-21T14:02:45.538Z,28
2023-05-21T14:31:20.939Z,26
2023-05-21T15:00:18.651Z,25
2023-05-21T15:28:39.211Z,25
2023-05-21T15:57:17.338Z,25
2023-05-21T16:25:39.648Z,25
2023-05-21T17:22:49.124Z,20
2023-05-21T17:51:24.776Z,20
2023-05-21T18:20:06.970Z,20
2023-05-21T18:48:26.893Z,15
2023-05-21T19:17:01.234Z,21
2023-05-21T19:45:52.062Z,24
2023-05-21T20:14:48.084Z,22
2023-05-21T20:43:39.226Z,46
2023-05-21T21:12:25.053Z,23
2023-05-21T21:41:08.348Z,24
2023-05-21T22:09:58.271Z,26
2023-05-21T22:38:24.937Z,25
2023-05-21T23:07:08.163Z,25
2023-05-21T23:35:34.904Z,24
